sensor_id;sensor_type;location;lat;lon;timestamp;P1;durP1;ratioP1;P2;durP2;ratioP2
6898;SDS011;3488;42.616;23.350;2022-11-12T00:00:55;7.65;;;5.75;;
6898;SDS011;3488;42.616;23.350;2022-11-12T00:03:23;6.28;;;4.95;;
6898;SDS011;3488;42.616;23.350;2022-11-12T00:05:50;5.00;;;3.80;;
6898;SDS011;3488;42.616;23.350;2022-11-12T00:08:17;8.77;;;7.38;;
6898;SDS011;3488;42.616;23.350;2022-11-12T00:10:44;8.27;;;6.78;;
6898;SDS011;3488;42.616;23.350;2022-11-12T00:13:12;8.07;;;6.57;;
6898;SDS011;3488;42.616;23.350;2022-11-12T00:15:40;9.73;;;6.97;;
6898;SDS011;3488;42.616;23.350;2022-11-12T00:18:07;10.60;;;7.22;;
6898;SDS011;3488;42.616;23.350;2022-11-12T00:20:34;6.72;;;6.00;;
6898;SDS011;3488;42.616;23.350;2022-11-12T00:23:01;7.57;;;6.60;;
6898;SDS011;3488;42.616;23.350;2022-11-12T00:25:28;7.00;;;6.30;;
6898;SDS011;3488;42.616;23.350;2022-11-12T00:27:59;6.80;;;6.10;;
6898;SDS011;3488;42.616;23.350;2022-11-12T00:30:27;6.03;;;5.38;;
6898;SDS011;3488;42.616;23.350;2022-11-12T00:32:55;7.57;;;6.50;;
6898;SDS011;3488;42.616;23.350;2022-11-12T00:35:22;7.38;;;6.45;;
6898;SDS011;3488;42.616;23.350;2022-11-12T00:37:52;12.15;;;9.35;;
6898;SDS011;3488;42.616;23.350;2022-11-12T00:40:19;26.17;;;14.18;;
6898;SDS011;3488;42.616;23.350;2022-11-12T00:42:46;18.95;;;12.32;;
6898;SDS011;3488;42.616;23.350;2022-11-12T00:45:13;25.45;;;14.43;;
6898;SDS011;3488;42.616;23.350;2022-11-12T00:47:40;23.25;;;14.50;;
6898;SDS011;3488;42.616;23.350;2022-11-12T00:50:09;24.30;;;16.58;;
6898;SDS011;3488;42.616;23.350;2022-11-12T00:52:36;28.65;;;14.00;;
6898;SDS011;3488;42.616;23.350;2022-11-12T00:55:03;20.58;;;14.02;;
6898;SDS011;3488;42.616;23.350;2022-11-12T00:57:30;22.23;;;14.43;;
6898;SDS011;3488;42.616;23.350;2022-11-12T00:59:57;21.02;;;12.60;;
6898;SDS011;3488;42.616;23.350;2022-11-12T01:02:23;19.75;;;12.98;;
6898;SDS011;3488;42.616;23.350;2022-11-12T01:04:50;23.40;;;13.85;;
6898;SDS011;3488;42.616;23.350;2022-11-12T01:07:18;21.98;;;13.48;;
6898;SDS011;3488;42.616;23.350;2022-11-12T01:09:45;23.77;;;13.60;;
6898;SDS011;3488;42.616;23.350;2022-11-12T01:12:12;22.15;;;13.63;;
6898;SDS011;3488;42.616;23.350;2022-11-12T01:14:39;18.85;;;12.20;;
6898;SDS011;3488;42.616;23.350;2022-11-12T01:17:06;21.30;;;13.63;;
6898;SDS011;3488;42.616;23.350;2022-11-12T01:19:33;19.30;;;12.60;;
6898;SDS011;3488;42.616;23.350;2022-11-12T01:22:00;21.35;;;14.35;;
6898;SDS011;3488;42.616;23.350;2022-11-12T01:24:28;22.83;;;15.50;;
6898;SDS011;3488;42.616;23.350;2022-11-12T01:26:55;23.52;;;13.90;;
6898;SDS011;3488;42.616;23.350;2022-11-12T01:29:21;19.75;;;13.77;;
6898;SDS011;3488;42.616;23.350;2022-11-12T01:31:48;24.13;;;13.15;;
6898;SDS011;3488;42.616;23.350;2022-11-12T01:34:15;26.67;;;14.80;;
6898;SDS011;3488;42.616;23.350;2022-11-12T01:36:42;28.02;;;16.73;;
6898;SDS011;3488;42.616;23.350;2022-11-12T01:39:09;33.95;;;17.73;;
6898;SDS011;3488;42.616;23.350;2022-11-12T01:41:37;34.63;;;17.42;;
6898;SDS011;3488;42.616;23.350;2022-11-12T01:44:05;37.33;;;19.17;;
6898;SDS011;3488;42.616;23.350;2022-11-12T01:46:33;34.72;;;19.70;;
6898;SDS011;3488;42.616;23.350;2022-11-12T01:49:05;28.27;;;17.45;;
6898;SDS011;3488;42.616;23.350;2022-11-12T01:51:36;32.42;;;18.33;;
6898;SDS011;3488;42.616;23.350;2022-11-12T01:54:10;31.73;;;18.85;;
6898;SDS011;3488;42.616;23.350;2022-11-12T01:56:42;29.70;;;18.00;;
6898;SDS011;3488;42.616;23.350;2022-11-12T01:59:11;28.58;;;16.52;;
6898;SDS011;3488;42.616;23.350;2022-11-12T02:01:41;38.78;;;18.98;;
6898;SDS011;3488;42.616;23.350;2022-11-12T02:04:07;27.30;;;17.30;;
6898;SDS011;3488;42.616;23.350;2022-11-12T02:06:34;30.42;;;16.70;;
6898;SDS011;3488;42.616;23.350;2022-11-12T02:09:02;24.27;;;16.00;;
6898;SDS011;3488;42.616;23.350;2022-11-12T02:11:30;29.13;;;16.73;;
6898;SDS011;3488;42.616;23.350;2022-11-12T02:13:59;24.52;;;14.90;;
6898;SDS011;3488;42.616;23.350;2022-11-12T02:16:25;21.75;;;13.82;;
6898;SDS011;3488;42.616;23.350;2022-11-12T02:18:55;21.90;;;13.93;;
6898;SDS011;3488;42.616;23.350;2022-11-12T02:21:24;23.95;;;15.80;;
6898;SDS011;3488;42.616;23.350;2022-11-12T02:24:01;24.20;;;15.88;;
6898;SDS011;3488;42.616;23.350;2022-11-12T02:26:31;22.80;;;14.23;;
6898;SDS011;3488;42.616;23.350;2022-11-12T02:28:59;24.05;;;14.60;;
6898;SDS011;3488;42.616;23.350;2022-11-12T02:31:26;21.17;;;14.25;;
6898;SDS011;3488;42.616;23.350;2022-11-12T02:33:53;24.55;;;15.02;;
6898;SDS011;3488;42.616;23.350;2022-11-12T02:36:21;17.77;;;11.93;;
6898;SDS011;3488;42.616;23.350;2022-11-12T02:38:50;16.63;;;9.85;;
6898;SDS011;3488;42.616;23.350;2022-11-12T02:41:17;11.57;;;9.10;;
6898;SDS011;3488;42.616;23.350;2022-11-12T02:43:44;12.27;;;8.55;;
6898;SDS011;3488;42.616;23.350;2022-11-12T02:46:11;12.05;;;8.27;;
6898;SDS011;3488;42.616;23.350;2022-11-12T02:48:38;12.50;;;8.15;;
6898;SDS011;3488;42.616;23.350;2022-11-12T02:51:05;16.75;;;11.98;;
6898;SDS011;3488;42.616;23.350;2022-11-12T02:53:33;18.58;;;12.85;;
6898;SDS011;3488;42.616;23.350;2022-11-12T02:56:01;18.80;;;12.13;;
6898;SDS011;3488;42.616;23.350;2022-11-12T02:58:29;18.40;;;11.25;;
6898;SDS011;3488;42.616;23.350;2022-11-12T03:00:56;17.42;;;11.75;;
6898;SDS011;3488;42.616;23.350;2022-11-12T03:03:23;17.85;;;11.40;;
6898;SDS011;3488;42.616;23.350;2022-11-12T03:05:53;17.33;;;9.77;;
6898;SDS011;3488;42.616;23.350;2022-11-12T03:08:21;15.95;;;9.85;;
6898;SDS011;3488;42.616;23.350;2022-11-12T03:10:48;9.57;;;7.40;;
6898;SDS011;3488;42.616;23.350;2022-11-12T03:13:17;8.43;;;6.75;;
6898;SDS011;3488;42.616;23.350;2022-11-12T03:15:44;5.50;;;4.47;;
6898;SDS011;3488;42.616;23.350;2022-11-12T03:18:11;5.78;;;4.47;;
6898;SDS011;3488;42.616;23.350;2022-11-12T03:20:38;5.53;;;4.55;;
6898;SDS011;3488;42.616;23.350;2022-11-12T03:23:06;4.57;;;3.60;;
6898;SDS011;3488;42.616;23.350;2022-11-12T03:25:34;4.00;;;3.60;;
6898;SDS011;3488;42.616;23.350;2022-11-12T03:28:02;4.45;;;4.05;;
6898;SDS011;3488;42.616;23.350;2022-11-12T03:30:33;4.07;;;3.78;;
6898;SDS011;3488;42.616;23.350;2022-11-12T03:33:01;3.72;;;3.42;;
6898;SDS011;3488;42.616;23.350;2022-11-12T03:35:29;3.85;;;3.50;;
6898;SDS011;3488;42.616;23.350;2022-11-12T03:37:56;4.22;;;3.50;;
6898;SDS011;3488;42.616;23.350;2022-11-12T03:40:24;4.57;;;4.03;;
6898;SDS011;3488;42.616;23.350;2022-11-12T03:42:51;3.13;;;2.92;;
6898;SDS011;3488;42.616;23.350;2022-11-12T03:45:19;4.35;;;3.95;;
6898;SDS011;3488;42.616;23.350;2022-11-12T03:47:49;3.67;;;3.38;;
6898;SDS011;3488;42.616;23.350;2022-11-12T03:50:18;3.85;;;3.50;;
6898;SDS011;3488;42.616;23.350;2022-11-12T03:52:46;3.50;;;3.13;;
6898;SDS011;3488;42.616;23.350;2022-11-12T03:55:15;4.18;;;3.88;;
6898;SDS011;3488;42.616;23.350;2022-11-12T03:57:43;4.18;;;3.78;;
6898;SDS011;3488;42.616;23.350;2022-11-12T04:00:11;3.58;;;3.28;;
6898;SDS011;3488;42.616;23.350;2022-11-12T04:02:38;3.28;;;3.00;;
6898;SDS011;3488;42.616;23.350;2022-11-12T04:05:07;3.80;;;3.50;;
6898;SDS011;3488;42.616;23.350;2022-11-12T04:07:56;5.00;;;3.78;;
6898;SDS011;3488;42.616;23.350;2022-11-12T04:10:41;4.05;;;3.65;;
6898;SDS011;3488;42.616;23.350;2022-11-12T04:13:08;5.70;;;3.63;;
6898;SDS011;3488;42.616;23.350;2022-11-12T04:15:55;4.07;;;3.70;;
6898;SDS011;3488;42.616;23.350;2022-11-12T04:18:40;4.20;;;3.80;;
6898;SDS011;3488;42.616;23.350;2022-11-12T04:21:27;4.15;;;3.80;;
6898;SDS011;3488;42.616;23.350;2022-11-12T04:24:14;4.30;;;3.90;;
6898;SDS011;3488;42.616;23.350;2022-11-12T04:26:55;3.92;;;3.63;;
6898;SDS011;3488;42.616;23.350;2022-11-12T04:29:22;5.07;;;4.00;;
6898;SDS011;3488;42.616;23.350;2022-11-12T04:32:06;4.75;;;4.03;;
6898;SDS011;3488;42.616;23.350;2022-11-12T04:34:33;4.25;;;3.92;;
6898;SDS011;3488;42.616;23.350;2022-11-12T04:37:02;3.60;;;3.30;;
6898;SDS011;3488;42.616;23.350;2022-11-12T04:39:29;3.65;;;3.35;;
6898;SDS011;3488;42.616;23.350;2022-11-12T04:41:56;4.30;;;3.92;;
6898;SDS011;3488;42.616;23.350;2022-11-12T04:44:41;5.65;;;3.65;;
6898;SDS011;3488;42.616;23.350;2022-11-12T04:47:29;3.65;;;3.35;;
6898;SDS011;3488;42.616;23.350;2022-11-12T04:49:59;3.92;;;3.53;;
6898;SDS011;3488;42.616;23.350;2022-11-12T04:52:28;4.70;;;3.40;;
6898;SDS011;3488;42.616;23.350;2022-11-12T04:54:55;3.38;;;3.17;;
6898;SDS011;3488;42.616;23.350;2022-11-12T04:57:22;4.22;;;3.80;;
6898;SDS011;3488;42.616;23.350;2022-11-12T04:59:50;4.25;;;3.58;;
6898;SDS011;3488;42.616;23.350;2022-11-12T05:02:17;4.40;;;3.38;;
6898;SDS011;3488;42.616;23.350;2022-11-12T05:04:44;4.65;;;3.33;;
6898;SDS011;3488;42.616;23.350;2022-11-12T05:07:11;6.80;;;4.30;;
6898;SDS011;3488;42.616;23.350;2022-11-12T05:09:39;5.20;;;3.75;;
6898;SDS011;3488;42.616;23.350;2022-11-12T05:12:07;4.13;;;3.47;;
6898;SDS011;3488;42.616;23.350;2022-11-12T05:14:34;4.53;;;4.18;;
6898;SDS011;3488;42.616;23.350;2022-11-12T05:17:01;4.72;;;3.72;;
6898;SDS011;3488;42.616;23.350;2022-11-12T05:19:28;4.25;;;3.83;;
6898;SDS011;3488;42.616;23.350;2022-11-12T05:21:55;4.47;;;4.07;;
6898;SDS011;3488;42.616;23.350;2022-11-12T05:24:30;5.40;;;3.92;;
6898;SDS011;3488;42.616;23.350;2022-11-12T05:26:59;4.90;;;4.07;;
6898;SDS011;3488;42.616;23.350;2022-11-12T05:29:27;5.57;;;4.25;;
6898;SDS011;3488;42.616;23.350;2022-11-12T05:31:53;4.07;;;3.78;;
6898;SDS011;3488;42.616;23.350;2022-11-12T05:34:21;6.68;;;4.45;;
6898;SDS011;3488;42.616;23.350;2022-11-12T05:36:48;5.20;;;4.75;;
6898;SDS011;3488;42.616;23.350;2022-11-12T05:39:15;4.15;;;3.83;;
6898;SDS011;3488;42.616;23.350;2022-11-12T05:41:42;4.63;;;4.18;;
6898;SDS011;3488;42.616;23.350;2022-11-12T05:44:10;4.45;;;3.70;;
6898;SDS011;3488;42.616;23.350;2022-11-12T05:46:40;4.43;;;4.05;;
6898;SDS011;3488;42.616;23.350;2022-11-12T05:49:07;4.88;;;4.28;;
6898;SDS011;3488;42.616;23.350;2022-11-12T05:51:34;5.82;;;4.88;;
6898;SDS011;3488;42.616;23.350;2022-11-12T05:54:03;5.18;;;4.68;;
6898;SDS011;3488;42.616;23.350;2022-11-12T05:56:30;5.88;;;5.00;;
6898;SDS011;3488;42.616;23.350;2022-11-12T05:58:57;5.85;;;5.10;;
6898;SDS011;3488;42.616;23.350;2022-11-12T06:04:40;5.57;;;4.32;;
6898;SDS011;3488;42.616;23.350;2022-11-12T06:07:06;4.55;;;4.20;;
6898;SDS011;3488;42.616;23.350;2022-11-12T06:09:36;9.15;;;4.40;;
6898;SDS011;3488;42.616;23.350;2022-11-12T06:12:06;4.65;;;4.28;;
6898;SDS011;3488;42.616;23.350;2022-11-12T06:14:34;5.75;;;4.60;;
6898;SDS011;3488;42.616;23.350;2022-11-12T06:17:03;5.05;;;4.13;;
6898;SDS011;3488;42.616;23.350;2022-11-12T06:19:30;4.15;;;3.83;;
6898;SDS011;3488;42.616;23.350;2022-11-12T06:22:01;5.63;;;4.00;;
6898;SDS011;3488;42.616;23.350;2022-11-12T06:24:28;4.85;;;4.38;;
6898;SDS011;3488;42.616;23.350;2022-11-12T06:26:55;8.27;;;4.47;;
6898;SDS011;3488;42.616;23.350;2022-11-12T06:29:21;4.55;;;4.13;;
6898;SDS011;3488;42.616;23.350;2022-11-12T06:31:50;5.93;;;4.88;;
6898;SDS011;3488;42.616;23.350;2022-11-12T06:34:17;6.40;;;4.50;;
6898;SDS011;3488;42.616;23.350;2022-11-12T06:36:44;5.53;;;5.00;;
6898;SDS011;3488;42.616;23.350;2022-11-12T06:39:14;4.57;;;4.18;;
6898;SDS011;3488;42.616;23.350;2022-11-12T06:41:41;4.43;;;4.07;;
6898;SDS011;3488;42.616;23.350;2022-11-12T06:44:11;5.25;;;4.30;;
6898;SDS011;3488;42.616;23.350;2022-11-12T06:46:38;5.63;;;4.97;;
6898;SDS011;3488;42.616;23.350;2022-11-12T06:49:05;6.25;;;4.35;;
6898;SDS011;3488;42.616;23.350;2022-11-12T06:51:33;5.57;;;5.05;;
6898;SDS011;3488;42.616;23.350;2022-11-12T06:54:00;5.13;;;4.63;;
6898;SDS011;3488;42.616;23.350;2022-11-12T06:56:30;6.63;;;4.95;;
6898;SDS011;3488;42.616;23.350;2022-11-12T06:58:56;5.57;;;4.70;;
6898;SDS011;3488;42.616;23.350;2022-11-12T07:01:23;5.65;;;5.07;;
6898;SDS011;3488;42.616;23.350;2022-11-12T07:03:53;5.30;;;4.20;;
6898;SDS011;3488;42.616;23.350;2022-11-12T07:06:19;5.00;;;4.32;;
6898;SDS011;3488;42.616;23.350;2022-11-12T07:08:46;7.97;;;5.22;;
6898;SDS011;3488;42.616;23.350;2022-11-12T07:11:14;7.05;;;5.45;;
6898;SDS011;3488;42.616;23.350;2022-11-12T07:13:43;9.30;;;6.50;;
6898;SDS011;3488;42.616;23.350;2022-11-12T07:16:11;11.85;;;8.68;;
6898;SDS011;3488;42.616;23.350;2022-11-12T07:18:42;8.23;;;5.68;;
6898;SDS011;3488;42.616;23.350;2022-11-12T07:21:12;5.03;;;4.55;;
6898;SDS011;3488;42.616;23.350;2022-11-12T07:23:41;4.93;;;4.43;;
6898;SDS011;3488;42.616;23.350;2022-11-12T07:26:19;5.20;;;4.30;;
6898;SDS011;3488;42.616;23.350;2022-11-12T07:28:49;7.07;;;4.38;;
6898;SDS011;3488;42.616;23.350;2022-11-12T07:31:17;5.28;;;4.63;;
6898;SDS011;3488;42.616;23.350;2022-11-12T07:33:45;4.93;;;4.53;;
6898;SDS011;3488;42.616;23.350;2022-11-12T07:36:13;5.90;;;4.60;;
6898;SDS011;3488;42.616;23.350;2022-11-12T07:38:42;5.80;;;5.20;;
6898;SDS011;3488;42.616;23.350;2022-11-12T07:41:10;5.25;;;4.80;;
6898;SDS011;3488;42.616;23.350;2022-11-12T07:43:39;5.50;;;4.60;;
6898;SDS011;3488;42.616;23.350;2022-11-12T07:46:10;5.78;;;5.18;;
6898;SDS011;3488;42.616;23.350;2022-11-12T07:48:39;7.07;;;5.75;;
6898;SDS011;3488;42.616;23.350;2022-11-12T07:51:06;6.38;;;5.63;;
6898;SDS011;3488;42.616;23.350;2022-11-12T07:53:41;5.68;;;5.15;;
6898;SDS011;3488;42.616;23.350;2022-11-12T07:56:09;4.85;;;4.35;;
6898;SDS011;3488;42.616;23.350;2022-11-12T07:58:37;5.88;;;4.93;;
6898;SDS011;3488;42.616;23.350;2022-11-12T08:01:09;9.05;;;5.45;;
6898;SDS011;3488;42.616;23.350;2022-11-12T08:03:48;6.13;;;4.93;;
6898;SDS011;3488;42.616;23.350;2022-11-12T08:06:15;7.15;;;5.93;;
6898;SDS011;3488;42.616;23.350;2022-11-12T08:08:42;6.00;;;5.40;;
6898;SDS011;3488;42.616;23.350;2022-11-12T08:11:09;6.03;;;5.38;;
6898;SDS011;3488;42.616;23.350;2022-11-12T08:13:38;5.10;;;4.53;;
6898;SDS011;3488;42.616;23.350;2022-11-12T08:16:05;6.18;;;4.75;;
6898;SDS011;3488;42.616;23.350;2022-11-12T08:18:34;7.15;;;5.05;;
6898;SDS011;3488;42.616;23.350;2022-11-12T08:21:02;6.38;;;5.70;;
6898;SDS011;3488;42.616;23.350;2022-11-12T08:23:30;5.88;;;5.28;;
6898;SDS011;3488;42.616;23.350;2022-11-12T08:25:58;5.30;;;4.90;;
6898;SDS011;3488;42.616;23.350;2022-11-12T08:28:25;5.57;;;5.07;;
6898;SDS011;3488;42.616;23.350;2022-11-12T08:30:53;5.95;;;5.38;;
6898;SDS011;3488;42.616;23.350;2022-11-12T08:33:21;5.00;;;4.60;;
6898;SDS011;3488;42.616;23.350;2022-11-12T08:35:49;5.72;;;5.18;;
6898;SDS011;3488;42.616;23.350;2022-11-12T08:38:16;6.18;;;4.65;;
6898;SDS011;3488;42.616;23.350;2022-11-12T08:40:43;7.53;;;4.78;;
6898;SDS011;3488;42.616;23.350;2022-11-12T08:43:10;4.78;;;4.38;;
6898;SDS011;3488;42.616;23.350;2022-11-12T08:45:37;6.90;;;4.32;;
6898;SDS011;3488;42.616;23.350;2022-11-12T08:48:06;4.13;;;3.80;;
6898;SDS011;3488;42.616;23.350;2022-11-12T08:50:35;4.85;;;4.45;;
6898;SDS011;3488;42.616;23.350;2022-11-12T08:53:04;4.07;;;3.67;;
6898;SDS011;3488;42.616;23.350;2022-11-12T08:55:33;5.80;;;4.43;;
6898;SDS011;3488;42.616;23.350;2022-11-12T08:58:00;7.45;;;5.40;;
6898;SDS011;3488;42.616;23.350;2022-11-12T09:00:28;4.90;;;4.40;;
6898;SDS011;3488;42.616;23.350;2022-11-12T09:02:57;5.57;;;5.03;;
6898;SDS011;3488;42.616;23.350;2022-11-12T09:05:25;4.35;;;4.00;;
6898;SDS011;3488;42.616;23.350;2022-11-12T09:07:55;4.88;;;4.47;;
6898;SDS011;3488;42.616;23.350;2022-11-12T09:10:24;4.97;;;4.55;;
6898;SDS011;3488;42.616;23.350;2022-11-12T09:12:52;5.47;;;4.50;;
6898;SDS011;3488;42.616;23.350;2022-11-12T09:15:19;5.28;;;4.78;;
6898;SDS011;3488;42.616;23.350;2022-11-12T09:17:46;4.20;;;3.90;;
6898;SDS011;3488;42.616;23.350;2022-11-12T09:20:13;4.53;;;4.22;;
6898;SDS011;3488;42.616;23.350;2022-11-12T09:22:40;4.05;;;3.65;;
6898;SDS011;3488;42.616;23.350;2022-11-12T09:25:07;4.38;;;3.97;;
6898;SDS011;3488;42.616;23.350;2022-11-12T09:27:36;5.07;;;3.92;;
6898;SDS011;3488;42.616;23.350;2022-11-12T09:30:03;4.20;;;3.83;;
6898;SDS011;3488;42.616;23.350;2022-11-12T09:32:30;4.20;;;3.90;;
6898;SDS011;3488;42.616;23.350;2022-11-12T09:34:58;4.63;;;3.90;;
6898;SDS011;3488;42.616;23.350;2022-11-12T09:37:25;5.03;;;4.35;;
6898;SDS011;3488;42.616;23.350;2022-11-12T09:39:52;4.93;;;4.40;;
6898;SDS011;3488;42.616;23.350;2022-11-12T09:42:19;4.28;;;3.95;;
6898;SDS011;3488;42.616;23.350;2022-11-12T09:44:51;4.50;;;4.13;;
6898;SDS011;3488;42.616;23.350;2022-11-12T09:47:24;6.53;;;4.10;;
6898;SDS011;3488;42.616;23.350;2022-11-12T09:49:54;6.10;;;4.88;;
6898;SDS011;3488;42.616;23.350;2022-11-12T09:52:27;4.53;;;4.22;;
6898;SDS011;3488;42.616;23.350;2022-11-12T09:54:57;4.75;;;4.32;;
6898;SDS011;3488;42.616;23.350;2022-11-12T09:57:30;4.25;;;3.65;;
6898;SDS011;3488;42.616;23.350;2022-11-12T10:00:08;6.38;;;4.25;;
6898;SDS011;3488;42.616;23.350;2022-11-12T10:02:41;4.80;;;3.92;;
6898;SDS011;3488;42.616;23.350;2022-11-12T10:05:20;4.00;;;3.70;;
6898;SDS011;3488;42.616;23.350;2022-11-12T10:07:55;3.60;;;2.60;;
6898;SDS011;3488;42.616;23.350;2022-11-12T10:10:32;3.08;;;2.88;;
6898;SDS011;3488;42.616;23.350;2022-11-12T10:13:09;3.45;;;3.13;;
6898;SDS011;3488;42.616;23.350;2022-11-12T10:15:52;3.80;;;3.45;;
6898;SDS011;3488;42.616;23.350;2022-11-12T10:21:44;4.50;;;3.97;;
6898;SDS011;3488;42.616;23.350;2022-11-12T10:24:20;6.70;;;3.70;;
6898;SDS011;3488;42.616;23.350;2022-11-12T10:26:48;4.47;;;3.70;;
6898;SDS011;3488;42.616;23.350;2022-11-12T10:29:18;3.72;;;3.53;;
6898;SDS011;3488;42.616;23.350;2022-11-12T10:31:57;4.55;;;4.13;;
6898;SDS011;3488;42.616;23.350;2022-11-12T10:34:26;4.88;;;4.40;;
6898;SDS011;3488;42.616;23.350;2022-11-12T10:36:57;5.20;;;3.95;;
6898;SDS011;3488;42.616;23.350;2022-11-12T10:39:31;4.55;;;4.15;;
6898;SDS011;3488;42.616;23.350;2022-11-12T10:42:03;4.40;;;4.07;;
6898;SDS011;3488;42.616;23.350;2022-11-12T10:44:32;4.88;;;4.47;;
6898;SDS011;3488;42.616;23.350;2022-11-12T10:49:58;4.15;;;3.85;;
6898;SDS011;3488;42.616;23.350;2022-11-12T10:52:29;4.10;;;3.67;;
6898;SDS011;3488;42.616;23.350;2022-11-12T10:55:02;3.92;;;3.47;;
6898;SDS011;3488;42.616;23.350;2022-11-12T10:57:32;4.03;;;3.63;;
6898;SDS011;3488;42.616;23.350;2022-11-12T11:00:05;3.42;;;3.13;;
6898;SDS011;3488;42.616;23.350;2022-11-12T11:02:35;3.17;;;2.97;;
6898;SDS011;3488;42.616;23.350;2022-11-12T11:07:55;3.92;;;3.58;;
6898;SDS011;3488;42.616;23.350;2022-11-12T11:10:23;3.90;;;3.60;;
6898;SDS011;3488;42.616;23.350;2022-11-12T11:15:34;4.75;;;3.65;;
6898;SDS011;3488;42.616;23.350;2022-11-12T11:18:02;3.50;;;3.30;;
6898;SDS011;3488;42.616;23.350;2022-11-12T11:20:32;4.57;;;3.53;;
6898;SDS011;3488;42.616;23.350;2022-11-12T11:23:07;3.20;;;3.00;;
6898;SDS011;3488;42.616;23.350;2022-11-12T11:25:42;3.13;;;2.92;;
6898;SDS011;3488;42.616;23.350;2022-11-12T11:28:15;3.83;;;3.40;;
6898;SDS011;3488;42.616;23.350;2022-11-12T11:30:55;4.90;;;3.63;;
6898;SDS011;3488;42.616;23.350;2022-11-12T11:33:33;4.07;;;3.78;;
6898;SDS011;3488;42.616;23.350;2022-11-12T11:36:12;2.75;;;2.55;;
6898;SDS011;3488;42.616;23.350;2022-11-12T11:38:48;3.25;;;2.97;;
6898;SDS011;3488;42.616;23.350;2022-11-12T11:41:42;3.55;;;3.25;;
6898;SDS011;3488;42.616;23.350;2022-11-12T11:44:20;2.90;;;2.70;;
6898;SDS011;3488;42.616;23.350;2022-11-12T11:47:02;3.00;;;2.78;;
6898;SDS011;3488;42.616;23.350;2022-11-12T11:49:47;3.22;;;2.80;;
6898;SDS011;3488;42.616;23.350;2022-11-12T11:52:43;2.95;;;2.75;;
6898;SDS011;3488;42.616;23.350;2022-11-12T11:55:17;3.90;;;3.45;;
6898;SDS011;3488;42.616;23.350;2022-11-12T11:57:54;3.38;;;3.03;;
6898;SDS011;3488;42.616;23.350;2022-11-12T12:00:33;4.30;;;3.25;;
6898;SDS011;3488;42.616;23.350;2022-11-12T12:06:06;4.13;;;3.72;;
6898;SDS011;3488;42.616;23.350;2022-11-12T12:08:52;4.82;;;4.25;;
6898;SDS011;3488;42.616;23.350;2022-11-12T12:11:29;4.85;;;4.15;;
6898;SDS011;3488;42.616;23.350;2022-11-12T12:14:09;3.90;;;3.60;;
6898;SDS011;3488;42.616;23.350;2022-11-12T12:16:49;3.15;;;2.95;;
6898;SDS011;3488;42.616;23.350;2022-11-12T12:19:30;3.20;;;2.90;;
6898;SDS011;3488;42.616;23.350;2022-11-12T12:22:09;3.15;;;2.95;;
6898;SDS011;3488;42.616;23.350;2022-11-12T12:24:42;2.90;;;2.70;;
6898;SDS011;3488;42.616;23.350;2022-11-12T12:27:15;2.47;;;2.35;;
6898;SDS011;3488;42.616;23.350;2022-11-12T12:29:46;3.17;;;2.97;;
6898;SDS011;3488;42.616;23.350;2022-11-12T12:32:17;3.92;;;3.70;;
6898;SDS011;3488;42.616;23.350;2022-11-12T12:34:50;3.45;;;3.25;;
6898;SDS011;3488;42.616;23.350;2022-11-12T12:37:25;2.72;;;2.63;;
6898;SDS011;3488;42.616;23.350;2022-11-12T12:40:02;2.30;;;2.20;;
6898;SDS011;3488;42.616;23.350;2022-11-12T12:42:41;3.17;;;2.97;;
6898;SDS011;3488;42.616;23.350;2022-11-12T12:45:25;2.72;;;2.53;;
6898;SDS011;3488;42.616;23.350;2022-11-12T12:47:59;4.28;;;2.92;;
6898;SDS011;3488;42.616;23.350;2022-11-12T12:50:29;5.45;;;3.08;;
6898;SDS011;3488;42.616;23.350;2022-11-12T12:52:59;2.78;;;2.58;;
6898;SDS011;3488;42.616;23.350;2022-11-12T12:55:35;3.50;;;3.20;;
6898;SDS011;3488;42.616;23.350;2022-11-12T12:58:14;3.20;;;3.00;;
6898;SDS011;3488;42.616;23.350;2022-11-12T13:00:45;3.13;;;2.83;;
6898;SDS011;3488;42.616;23.350;2022-11-12T13:06:15;3.85;;;3.58;;
6898;SDS011;3488;42.616;23.350;2022-11-12T13:08:52;3.80;;;3.50;;
6898;SDS011;3488;42.616;23.350;2022-11-12T13:17:48;7.45;;;4.18;;
6898;SDS011;3488;42.616;23.350;2022-11-12T13:23:10;4.05;;;3.75;;
6898;SDS011;3488;42.616;23.350;2022-11-12T13:37:54;6.30;;;5.13;;
6898;SDS011;3488;42.616;23.350;2022-11-12T13:40:41;6.30;;;5.28;;
6898;SDS011;3488;42.616;23.350;2022-11-12T13:43:19;5.38;;;4.82;;
6898;SDS011;3488;42.616;23.350;2022-11-12T13:45:57;6.40;;;5.72;;
6898;SDS011;3488;42.616;23.350;2022-11-12T13:48:27;4.90;;;4.40;;
6898;SDS011;3488;42.616;23.350;2022-11-12T13:50:59;7.85;;;4.88;;
6898;SDS011;3488;42.616;23.350;2022-11-12T13:53:29;6.30;;;5.43;;
6898;SDS011;3488;42.616;23.350;2022-11-12T13:55:58;6.53;;;5.70;;
6898;SDS011;3488;42.616;23.350;2022-11-12T13:58:28;6.90;;;5.85;;
6898;SDS011;3488;42.616;23.350;2022-11-12T14:00:57;6.47;;;4.85;;
6898;SDS011;3488;42.616;23.350;2022-11-12T14:03:27;5.63;;;4.90;;
6898;SDS011;3488;42.616;23.350;2022-11-12T14:05:57;9.95;;;7.78;;
6898;SDS011;3488;42.616;23.350;2022-11-12T14:08:43;11.35;;;7.47;;
6898;SDS011;3488;42.616;23.350;2022-11-12T14:11:32;10.48;;;7.60;;
6898;SDS011;3488;42.616;23.350;2022-11-12T14:14:13;10.60;;;7.15;;
6898;SDS011;3488;42.616;23.350;2022-11-12T14:16:54;6.35;;;5.70;;
6898;SDS011;3488;42.616;23.350;2022-11-12T14:19:50;4.47;;;4.07;;
6898;SDS011;3488;42.616;23.350;2022-11-12T14:22:34;5.53;;;4.95;;
6898;SDS011;3488;42.616;23.350;2022-11-12T14:25:09;6.22;;;4.97;;
6898;SDS011;3488;42.616;23.350;2022-11-12T14:27:43;5.30;;;4.78;;
6898;SDS011;3488;42.616;23.350;2022-11-12T14:30:13;4.75;;;4.28;;
6898;SDS011;3488;42.616;23.350;2022-11-12T14:32:42;5.18;;;4.45;;
6898;SDS011;3488;42.616;23.350;2022-11-12T14:35:18;4.25;;;3.90;;
6898;SDS011;3488;42.616;23.350;2022-11-12T14:37:47;4.47;;;3.67;;
6898;SDS011;3488;42.616;23.350;2022-11-12T14:40:17;4.50;;;4.10;;
6898;SDS011;3488;42.616;23.350;2022-11-12T14:42:51;4.05;;;3.75;;
6898;SDS011;3488;42.616;23.350;2022-11-12T14:45:20;4.25;;;3.85;;
6898;SDS011;3488;42.616;23.350;2022-11-12T14:47:49;4.30;;;3.83;;
6898;SDS011;3488;42.616;23.350;2022-11-12T14:50:19;4.38;;;3.97;;
6898;SDS011;3488;42.616;23.350;2022-11-12T14:52:50;5.03;;;4.28;;
6898;SDS011;3488;42.616;23.350;2022-11-12T14:55:23;5.60;;;4.70;;
6898;SDS011;3488;42.616;23.350;2022-11-12T14:57:53;5.07;;;4.57;;
6898;SDS011;3488;42.616;23.350;2022-11-12T15:00:36;5.35;;;4.80;;
6898;SDS011;3488;42.616;23.350;2022-11-12T15:03:08;4.82;;;4.38;;
6898;SDS011;3488;42.616;23.350;2022-11-12T15:05:56;4.07;;;3.80;;
6898;SDS011;3488;42.616;23.350;2022-11-12T15:08:31;6.45;;;5.60;;
6898;SDS011;3488;42.616;23.350;2022-11-12T15:11:18;7.85;;;6.40;;
6898;SDS011;3488;42.616;23.350;2022-11-12T15:13:49;9.18;;;7.80;;
6898;SDS011;3488;42.616;23.350;2022-11-12T15:16:22;11.43;;;8.77;;
6898;SDS011;3488;42.616;23.350;2022-11-12T15:21:45;9.23;;;7.47;;
6898;SDS011;3488;42.616;23.350;2022-11-12T15:24:15;8.57;;;7.38;;
6898;SDS011;3488;42.616;23.350;2022-11-12T15:26:44;8.57;;;7.63;;
6898;SDS011;3488;42.616;23.350;2022-11-12T15:29:17;9.98;;;8.55;;
6898;SDS011;3488;42.616;23.350;2022-11-12T15:31:51;9.27;;;7.38;;
6898;SDS011;3488;42.616;23.350;2022-11-12T15:34:31;7.90;;;7.05;;
6898;SDS011;3488;42.616;23.350;2022-11-12T15:37:21;13.48;;;8.80;;
6898;SDS011;3488;42.616;23.350;2022-11-12T15:39:51;11.75;;;8.13;;
6898;SDS011;3488;42.616;23.350;2022-11-12T15:42:23;14.20;;;10.40;;
6898;SDS011;3488;42.616;23.350;2022-11-12T15:44:56;11.80;;;9.00;;
6898;SDS011;3488;42.616;23.350;2022-11-12T15:47:26;10.93;;;8.68;;
6898;SDS011;3488;42.616;23.350;2022-11-12T15:49:53;25.58;;;15.27;;
6898;SDS011;3488;42.616;23.350;2022-11-12T15:52:22;23.75;;;15.25;;
6898;SDS011;3488;42.616;23.350;2022-11-12T15:54:50;24.55;;;15.25;;
6898;SDS011;3488;42.616;23.350;2022-11-12T15:57:17;17.35;;;12.43;;
6898;SDS011;3488;42.616;23.350;2022-11-12T15:59:47;15.15;;;11.30;;
6898;SDS011;3488;42.616;23.350;2022-11-12T16:02:23;14.60;;;10.52;;